TAF Text Data
IDs:
Format:
Raw Decoded Include METAR

Data at: 2039 UTC 13 Aug 2020

KOGB 132028Z 1320/1418 24005KT P6SM VCTS SCT035CB
  TEMPO 1320/1323 25020G30KT 3SM -TSRAGS BKN030CB
  FM140200 20004KT P6SM SCT035 BKN100
  FM141100 00000KT 6SM BR SCT008 BKN100
  FM141300 22005KT P6SM SCT050 BKN150